sensor_id;sensor_type;location;lat;lon;timestamp;temperature;humidity
13998;DHT22;7074;51.508;7.018;2022-08-04T03:44:40;22.80;99.90
13998;DHT22;7074;51.508;7.018;2022-08-04T03:47:31;22.80;99.90
13998;DHT22;7074;51.508;7.018;2022-08-04T03:50:56;22.80;99.90
13998;DHT22;7074;51.508;7.018;2022-08-04T06:21:16;25.90;99.90
13998;DHT22;7074;51.508;7.018;2022-08-04T06:23:45;26.00;99.90
13998;DHT22;7074;51.508;7.018;2022-08-04T06:26:14;26.20;99.90
13998;DHT22;7074;51.508;7.018;2022-08-04T06:28:45;26.10;99.90
13998;DHT22;7074;51.508;7.018;2022-08-04T06:31:16;26.20;99.90
13998;DHT22;7074;51.508;7.018;2022-08-04T06:33:59;26.20;99.90
13998;DHT22;7074;51.508;7.018;2022-08-04T06:36:30;26.10;99.90
13998;DHT22;7074;51.508;7.018;2022-08-04T06:39:02;26.20;99.90
13998;DHT22;7074;51.508;7.018;2022-08-04T06:41:30;26.50;99.90
13998;DHT22;7074;51.508;7.018;2022-08-04T06:44:00;26.60;99.90
13998;DHT22;7074;51.508;7.018;2022-08-04T06:46:29;26.90;99.90
13998;DHT22;7074;51.508;7.018;2022-08-04T06:48:58;26.90;99.90
13998;DHT22;7074;51.508;7.018;2022-08-04T06:51:27;27.00;99.90
13998;DHT22;7074;51.508;7.018;2022-08-04T06:53:58;27.30;99.90
13998;DHT22;7074;51.508;7.018;2022-08-04T06:56:26;27.50;99.90
13998;DHT22;7074;51.508;7.018;2022-08-04T06:58:54;27.70;99.90
13998;DHT22;7074;51.508;7.018;2022-08-04T07:01:22;27.80;99.90
13998;DHT22;7074;51.508;7.018;2022-08-04T07:03:50;28.10;99.90
13998;DHT22;7074;51.508;7.018;2022-08-04T07:06:20;28.30;99.90
13998;DHT22;7074;51.508;7.018;2022-08-04T07:08:48;28.40;99.90
13998;DHT22;7074;51.508;7.018;2022-08-04T07:11:18;28.60;99.90
13998;DHT22;7074;51.508;7.018;2022-08-04T07:13:47;28.80;99.90
13998;DHT22;7074;51.508;7.018;2022-08-04T07:16:17;29.10;99.90
13998;DHT22;7074;51.508;7.018;2022-08-04T07:18:44;29.20;99.90
13998;DHT22;7074;51.508;7.018;2022-08-04T07:21:18;29.40;99.90
13998;DHT22;7074;51.508;7.018;2022-08-04T07:23:46;29.60;99.90
13998;DHT22;7074;51.508;7.018;2022-08-04T07:26:14;29.80;99.90
13998;DHT22;7074;51.508;7.018;2022-08-04T07:28:46;29.90;99.90
13998;DHT22;7074;51.508;7.018;2022-08-04T07:31:15;30.10;99.90
13998;DHT22;7074;51.508;7.018;2022-08-04T07:33:44;30.20;99.70
13998;DHT22;7074;51.508;7.018;2022-08-04T07:36:14;30.30;99.90
13998;DHT22;7074;51.508;7.018;2022-08-04T07:38:42;30.40;98.10
13998;DHT22;7074;51.508;7.018;2022-08-04T07:41:09;30.40;96.50
13998;DHT22;7074;51.508;7.018;2022-08-04T07:43:36;30.40;96.70
13998;DHT22;7074;51.508;7.018;2022-08-04T07:46:06;30.40;95.20
13998;DHT22;7074;51.508;7.018;2022-08-04T07:48:33;30.50;95.10
13998;DHT22;7074;51.508;7.018;2022-08-04T07:51:00;30.60;94.50
13998;DHT22;7074;51.508;7.018;2022-08-04T07:53:28;30.60;94.90
13998;DHT22;7074;51.508;7.018;2022-08-04T07:55:56;30.80;95.70
13998;DHT22;7074;51.508;7.018;2022-08-04T07:58:24;30.80;94.90
13998;DHT22;7074;51.508;7.018;2022-08-04T08:01:23;30.90;94.50
13998;DHT22;7074;51.508;7.018;2022-08-04T08:05:37;30.90;93.60
13998;DHT22;7074;51.508;7.018;2022-08-04T08:07:55;31.00;93.40
13998;DHT22;7074;51.508;7.018;2022-08-04T08:10:23;31.00;93.80
13998;DHT22;7074;51.508;7.018;2022-08-04T08:12:51;31.10;93.40
13998;DHT22;7074;51.508;7.018;2022-08-04T08:15:19;31.30;92.90
13998;DHT22;7074;51.508;7.018;2022-08-04T08:17:48;31.40;92.60
13998;DHT22;7074;51.508;7.018;2022-08-04T08:20:16;31.50;92.60
13998;DHT22;7074;51.508;7.018;2022-08-04T08:22:43;31.50;91.00
13998;DHT22;7074;51.508;7.018;2022-08-04T08:25:11;31.70;90.70
13998;DHT22;7074;51.508;7.018;2022-08-04T08:27:38;31.70;90.80
13998;DHT22;7074;51.508;7.018;2022-08-04T08:30:07;31.80;91.10
13998;DHT22;7074;51.508;7.018;2022-08-04T08:32:34;32.00;90.60
13998;DHT22;7074;51.508;7.018;2022-08-04T08:35:03;32.10;89.40
13998;DHT22;7074;51.508;7.018;2022-08-04T08:37:34;32.10;90.00
13998;DHT22;7074;51.508;7.018;2022-08-04T08:40:18;32.30;89.00
13998;DHT22;7074;51.508;7.018;2022-08-04T08:43:11;32.40;88.00
13998;DHT22;7074;51.508;7.018;2022-08-04T08:45:58;32.60;86.40
13998;DHT22;7074;51.508;7.018;2022-08-04T08:48:54;32.70;85.10
13998;DHT22;7074;51.508;7.018;2022-08-04T08:51:47;32.80;84.00
13998;DHT22;7074;51.508;7.018;2022-08-04T08:58:04;32.90;82.80
13998;DHT22;7074;51.508;7.018;2022-08-04T09:01:20;32.80;79.70
13998;DHT22;7074;51.508;7.018;2022-08-04T09:08:12;32.90;81.10
13998;DHT22;7074;51.508;7.018;2022-08-04T09:11:08;33.00;78.20
13998;DHT22;7074;51.508;7.018;2022-08-04T09:14:19;33.20;79.50
13998;DHT22;7074;51.508;7.018;2022-08-04T09:17:09;33.20;77.50
13998;DHT22;7074;51.508;7.018;2022-08-04T09:20:42;33.40;78.30
13998;DHT22;7074;51.508;7.018;2022-08-04T09:23:41;33.50;76.60
13998;DHT22;7074;51.508;7.018;2022-08-04T09:26:47;33.40;76.80
13998;DHT22;7074;51.508;7.018;2022-08-04T09:30:00;33.60;74.70
13998;DHT22;7074;51.508;7.018;2022-08-04T09:32:56;33.90;74.10
13998;DHT22;7074;51.508;7.018;2022-08-04T09:36:09;33.90;74.10
13998;DHT22;7074;51.508;7.018;2022-08-04T09:39:23;33.80;75.10
13998;DHT22;7074;51.508;7.018;2022-08-04T09:42:00;33.60;75.60
13998;DHT22;7074;51.508;7.018;2022-08-04T09:44:38;33.50;75.10
13998;DHT22;7074;51.508;7.018;2022-08-04T09:47:12;33.30;75.60
13998;DHT22;7074;51.508;7.018;2022-08-04T09:49:46;33.40;75.70
13998;DHT22;7074;51.508;7.018;2022-08-04T09:52:25;33.20;76.20
13998;DHT22;7074;51.508;7.018;2022-08-04T09:55:03;33.20;77.30
13998;DHT22;7074;51.508;7.018;2022-08-04T09:57:48;33.10;74.40
13998;DHT22;7074;51.508;7.018;2022-08-04T10:00:18;33.00;76.20
13998;DHT22;7074;51.508;7.018;2022-08-04T10:02:51;33.10;75.10
13998;DHT22;7074;51.508;7.018;2022-08-04T10:05:21;33.10;76.10
13998;DHT22;7074;51.508;7.018;2022-08-04T10:08:03;33.20;75.50
13998;DHT22;7074;51.508;7.018;2022-08-04T10:10:40;33.40;76.70
13998;DHT22;7074;51.508;7.018;2022-08-04T10:13:23;33.50;75.50
13998;DHT22;7074;51.508;7.018;2022-08-04T10:16:03;33.60;74.50
13998;DHT22;7074;51.508;7.018;2022-08-04T10:18:47;33.70;73.40
13998;DHT22;7074;51.508;7.018;2022-08-04T10:21:21;33.90;72.70
13998;DHT22;7074;51.508;7.018;2022-08-04T10:24:06;34.00;72.40
13998;DHT22;7074;51.508;7.018;2022-08-04T10:26:44;34.20;71.30
13998;DHT22;7074;51.508;7.018;2022-08-04T10:29:15;34.20;70.10
13998;DHT22;7074;51.508;7.018;2022-08-04T10:31:51;34.40;69.80
13998;DHT22;7074;51.508;7.018;2022-08-04T10:34:24;34.20;69.70
13998;DHT22;7074;51.508;7.018;2022-08-04T10:36:57;34.40;68.80
13998;DHT22;7074;51.508;7.018;2022-08-04T10:39:32;34.40;68.50
13998;DHT22;7074;51.508;7.018;2022-08-04T10:42:18;34.30;68.50
13998;DHT22;7074;51.508;7.018;2022-08-04T10:44:58;34.30;67.70
13998;DHT22;7074;51.508;7.018;2022-08-04T10:47:37;34.20;68.50
13998;DHT22;7074;51.508;7.018;2022-08-04T10:50:10;34.50;68.60
13998;DHT22;7074;51.508;7.018;2022-08-04T10:52:47;34.30;68.10
13998;DHT22;7074;51.508;7.018;2022-08-04T10:55:26;34.20;68.20
13998;DHT22;7074;51.508;7.018;2022-08-04T10:57:59;34.20;68.40
13998;DHT22;7074;51.508;7.018;2022-08-04T11:00:28;34.20;68.40
13998;DHT22;7074;51.508;7.018;2022-08-04T11:03:00;34.20;66.80
13998;DHT22;7074;51.508;7.018;2022-08-04T11:05:38;34.20;67.20
13998;DHT22;7074;51.508;7.018;2022-08-04T11:08:11;34.20;67.20
13998;DHT22;7074;51.508;7.018;2022-08-04T11:10:44;34.30;67.20
13998;DHT22;7074;51.508;7.018;2022-08-04T11:13:15;34.30;67.60
13998;DHT22;7074;51.508;7.018;2022-08-04T11:15:48;34.40;67.70
13998;DHT22;7074;51.508;7.018;2022-08-04T11:18:24;34.40;68.30
13998;DHT22;7074;51.508;7.018;2022-08-04T11:20:58;34.60;69.70
13998;DHT22;7074;51.508;7.018;2022-08-04T11:23:31;34.80;68.90
13998;DHT22;7074;51.508;7.018;2022-08-04T11:26:04;34.80;66.80
13998;DHT22;7074;51.508;7.018;2022-08-04T11:28:45;34.80;67.30
13998;DHT22;7074;51.508;7.018;2022-08-04T11:31:20;34.80;67.20
13998;DHT22;7074;51.508;7.018;2022-08-04T11:33:53;34.60;65.10
13998;DHT22;7074;51.508;7.018;2022-08-04T11:36:29;34.60;65.10
13998;DHT22;7074;51.508;7.018;2022-08-04T11:39:05;34.50;63.90
13998;DHT22;7074;51.508;7.018;2022-08-04T11:41:41;34.50;64.60
13998;DHT22;7074;51.508;7.018;2022-08-04T11:44:21;34.70;64.20
13998;DHT22;7074;51.508;7.018;2022-08-04T11:46:51;34.60;63.70
13998;DHT22;7074;51.508;7.018;2022-08-04T11:49:30;34.60;64.40
13998;DHT22;7074;51.508;7.018;2022-08-04T11:52:00;34.60;64.20
13998;DHT22;7074;51.508;7.018;2022-08-04T11:54:29;34.50;64.80
13998;DHT22;7074;51.508;7.018;2022-08-04T11:56:57;34.40;65.90
13998;DHT22;7074;51.508;7.018;2022-08-04T11:59:27;34.10;66.80
13998;DHT22;7074;51.508;7.018;2022-08-04T12:02:28;33.90;68.30
13998;DHT22;7074;51.508;7.018;2022-08-04T12:04:56;34.00;68.90
13998;DHT22;7074;51.508;7.018;2022-08-04T12:07:36;34.00;69.00
13998;DHT22;7074;51.508;7.018;2022-08-04T12:10:14;34.10;69.10
13998;DHT22;7074;51.508;7.018;2022-08-04T12:12:52;33.90;68.10
13998;DHT22;7074;51.508;7.018;2022-08-04T12:15:26;33.80;68.20
13998;DHT22;7074;51.508;7.018;2022-08-04T12:18:00;33.70;68.60
13998;DHT22;7074;51.508;7.018;2022-08-04T12:20:36;33.60;69.90
13998;DHT22;7074;51.508;7.018;2022-08-04T12:23:10;33.50;70.20
13998;DHT22;7074;51.508;7.018;2022-08-04T12:25:44;33.40;71.30
13998;DHT22;7074;51.508;7.018;2022-08-04T12:28:17;33.40;71.70
13998;DHT22;7074;51.508;7.018;2022-08-04T12:30:53;33.20;72.00
13998;DHT22;7074;51.508;7.018;2022-08-04T12:33:26;33.10;72.30
13998;DHT22;7074;51.508;7.018;2022-08-04T12:35:58;33.00;73.10
13998;DHT22;7074;51.508;7.018;2022-08-04T12:38:31;32.80;73.10
13998;DHT22;7074;51.508;7.018;2022-08-04T12:41:00;32.70;73.60
13998;DHT22;7074;51.508;7.018;2022-08-04T12:43:35;32.60;76.40
13998;DHT22;7074;51.508;7.018;2022-08-04T12:46:06;32.40;79.20
13998;DHT22;7074;51.508;7.018;2022-08-04T12:48:36;32.60;81.00
13998;DHT22;7074;51.508;7.018;2022-08-04T12:51:07;32.80;81.00
13998;DHT22;7074;51.508;7.018;2022-08-04T12:53:42;33.00;81.00
13998;DHT22;7074;51.508;7.018;2022-08-04T12:56:11;32.90;81.10
13998;DHT22;7074;51.508;7.018;2022-08-04T12:58:41;32.70;81.40
13998;DHT22;7074;51.508;7.018;2022-08-04T13:01:12;32.60;82.10
13998;DHT22;7074;51.508;7.018;2022-08-04T13:03:45;32.60;81.40
13998;DHT22;7074;51.508;7.018;2022-08-04T13:06:14;32.40;83.00
13998;DHT22;7074;51.508;7.018;2022-08-04T13:08:44;32.50;82.70
13998;DHT22;7074;51.508;7.018;2022-08-04T13:11:14;32.60;83.60
13998;DHT22;7074;51.508;7.018;2022-08-04T13:13:43;32.60;84.10
13998;DHT22;7074;51.508;7.018;2022-08-04T13:16:12;32.40;84.10
13998;DHT22;7074;51.508;7.018;2022-08-04T13:18:46;32.40;84.30
13998;DHT22;7074;51.508;7.018;2022-08-04T13:21:17;32.50;84.60
13998;DHT22;7074;51.508;7.018;2022-08-04T13:23:45;32.80;84.20
13998;DHT22;7074;51.508;7.018;2022-08-04T13:26:13;32.90;83.80
13998;DHT22;7074;51.508;7.018;2022-08-04T13:28:45;33.20;82.40
13998;DHT22;7074;51.508;7.018;2022-08-04T13:31:17;33.30;81.80
13998;DHT22;7074;51.508;7.018;2022-08-04T13:33:47;33.10;81.40
13998;DHT22;7074;51.508;7.018;2022-08-04T13:36:16;33.10;80.50
13998;DHT22;7074;51.508;7.018;2022-08-04T13:38:48;32.80;81.40
13998;DHT22;7074;51.508;7.018;2022-08-04T13:41:21;33.10;80.80
13998;DHT22;7074;51.508;7.018;2022-08-04T13:43:54;32.80;80.40
13998;DHT22;7074;51.508;7.018;2022-08-04T13:46:28;33.00;80.30
13998;DHT22;7074;51.508;7.018;2022-08-04T13:48:58;33.20;80.10
13998;DHT22;7074;51.508;7.018;2022-08-04T13:51:29;33.50;79.00
13998;DHT22;7074;51.508;7.018;2022-08-04T13:53:59;33.70;79.40
13998;DHT22;7074;51.508;7.018;2022-08-04T13:56:32;33.80;78.80
13998;DHT22;7074;51.508;7.018;2022-08-04T13:59:04;33.80;77.00
13998;DHT22;7074;51.508;7.018;2022-08-04T14:01:34;33.70;78.60
13998;DHT22;7074;51.508;7.018;2022-08-04T14:04:08;33.60;78.00
13998;DHT22;7074;51.508;7.018;2022-08-04T14:06:44;33.80;78.00
13998;DHT22;7074;51.508;7.018;2022-08-04T14:09:15;33.80;76.40
13998;DHT22;7074;51.508;7.018;2022-08-04T14:11:44;34.00;74.20
13998;DHT22;7074;51.508;7.018;2022-08-04T14:14:20;34.30;71.10
13998;DHT22;7074;51.508;7.018;2022-08-04T14:16:57;34.60;70.30
13998;DHT22;7074;51.508;7.018;2022-08-04T14:19:24;34.40;69.90
13998;DHT22;7074;51.508;7.018;2022-08-04T14:21:52;34.50;72.30
13998;DHT22;7074;51.508;7.018;2022-08-04T14:24:23;34.50;71.70
13998;DHT22;7074;51.508;7.018;2022-08-04T14:26:50;34.60;72.10
13998;DHT22;7074;51.508;7.018;2022-08-04T14:29:18;34.40;71.90
13998;DHT22;7074;51.508;7.018;2022-08-04T14:31:49;34.40;72.40
13998;DHT22;7074;51.508;7.018;2022-08-04T14:34:47;34.40;72.80
13998;DHT22;7074;51.508;7.018;2022-08-04T14:37:15;34.20;73.20
13998;DHT22;7074;51.508;7.018;2022-08-04T14:39:45;33.90;74.50
13998;DHT22;7074;51.508;7.018;2022-08-04T14:42:13;33.90;74.50
13998;DHT22;7074;51.508;7.018;2022-08-04T14:44:56;33.90;74.50
13998;DHT22;7074;51.508;7.018;2022-08-04T14:47:41;33.90;74.10
13998;DHT22;7074;51.508;7.018;2022-08-04T14:50:11;33.90;74.80
13998;DHT22;7074;51.508;7.018;2022-08-04T14:52:39;33.70;75.20
13998;DHT22;7074;51.508;7.018;2022-08-04T14:55:18;33.60;75.90
13998;DHT22;7074;51.508;7.018;2022-08-04T14:57:45;33.50;76.70
13998;DHT22;7074;51.508;7.018;2022-08-04T15:00:23;33.20;77.60
13998;DHT22;7074;51.508;7.018;2022-08-04T15:02:51;33.00;78.00
13998;DHT22;7074;51.508;7.018;2022-08-04T15:05:21;32.70;79.00
13998;DHT22;7074;51.508;7.018;2022-08-04T15:07:49;32.70;80.00
13998;DHT22;7074;51.508;7.018;2022-08-04T15:10:19;32.60;80.60
13998;DHT22;7074;51.508;7.018;2022-08-04T15:12:47;32.70;81.20
13998;DHT22;7074;51.508;7.018;2022-08-04T15:15:15;32.60;81.80
13998;DHT22;7074;51.508;7.018;2022-08-04T15:17:42;32.50;82.60
13998;DHT22;7074;51.508;7.018;2022-08-04T15:20:11;32.40;83.10
13998;DHT22;7074;51.508;7.018;2022-08-04T15:22:41;32.30;83.70
13998;DHT22;7074;51.508;7.018;2022-08-04T15:25:08;32.20;83.40
13998;DHT22;7074;51.508;7.018;2022-08-04T15:27:38;32.20;83.30
13998;DHT22;7074;51.508;7.018;2022-08-04T15:30:08;32.20;84.10
13998;DHT22;7074;51.508;7.018;2022-08-04T15:32:38;32.10;84.40
13998;DHT22;7074;51.508;7.018;2022-08-04T15:35:08;32.00;84.90
13998;DHT22;7074;51.508;7.018;2022-08-04T15:37:45;31.80;85.70
13998;DHT22;7074;51.508;7.018;2022-08-04T15:40:17;31.70;86.20
13998;DHT22;7074;51.508;7.018;2022-08-04T15:42:46;31.70;84.00
13998;DHT22;7074;51.508;7.018;2022-08-04T15:45:22;31.60;82.40
13998;DHT22;7074;51.508;7.018;2022-08-04T15:51:04;31.50;82.60
13998;DHT22;7074;51.508;7.018;2022-08-04T15:56:46;31.80;81.90
13998;DHT22;7074;51.508;7.018;2022-08-04T15:59:13;31.80;82.10
13998;DHT22;7074;51.508;7.018;2022-08-04T16:01:42;31.70;80.30
13998;DHT22;7074;51.508;7.018;2022-08-04T16:04:21;31.60;80.70
13998;DHT22;7074;51.508;7.018;2022-08-04T16:06:49;31.50;81.20
13998;DHT22;7074;51.508;7.018;2022-08-04T16:09:23;31.40;81.20
13998;DHT22;7074;51.508;7.018;2022-08-04T16:11:52;31.40;82.00
13998;DHT22;7074;51.508;7.018;2022-08-04T16:14:33;31.20;83.00
13998;DHT22;7074;51.508;7.018;2022-08-04T16:17:17;31.20;83.80
13998;DHT22;7074;51.508;7.018;2022-08-04T16:19:51;31.20;84.60
13998;DHT22;7074;51.508;7.018;2022-08-04T16:22:37;31.10;85.20
13998;DHT22;7074;51.508;7.018;2022-08-04T16:25:07;31.10;86.30
13998;DHT22;7074;51.508;7.018;2022-08-04T16:27:40;31.10;87.20
13998;DHT22;7074;51.508;7.018;2022-08-04T16:30:10;31.10;88.50
13998;DHT22;7074;51.508;7.018;2022-08-04T16:32:42;31.10;89.40
13998;DHT22;7074;51.508;7.018;2022-08-04T16:35:21;31.10;90.00
13998;DHT22;7074;51.508;7.018;2022-08-04T16:38:09;31.10;90.30
13998;DHT22;7074;51.508;7.018;2022-08-04T16:40:40;31.10;90.50
13998;DHT22;7074;51.508;7.018;2022-08-04T16:43:12;31.30;90.60
13998;DHT22;7074;51.508;7.018;2022-08-04T16:45:41;31.30;90.70
13998;DHT22;7074;51.508;7.018;2022-08-04T16:48:10;31.30;90.80
13998;DHT22;7074;51.508;7.018;2022-08-04T16:50:59;31.10;91.10
13998;DHT22;7074;51.508;7.018;2022-08-04T16:53:27;31.10;91.50
13998;DHT22;7074;51.508;7.018;2022-08-04T16:56:00;31.00;91.90
13998;DHT22;7074;51.508;7.018;2022-08-04T16:58:31;30.90;92.10
13998;DHT22;7074;51.508;7.018;2022-08-04T17:01:06;30.80;92.80
13998;DHT22;7074;51.508;7.018;2022-08-04T17:03:35;30.70;93.20
13998;DHT22;7074;51.508;7.018;2022-08-04T17:06:11;30.60;93.40
13998;DHT22;7074;51.508;7.018;2022-08-04T17:08:39;30.40;93.70
13998;DHT22;7074;51.508;7.018;2022-08-04T17:11:08;30.40;94.00
13998;DHT22;7074;51.508;7.018;2022-08-04T17:13:37;30.40;93.90
13998;DHT22;7074;51.508;7.018;2022-08-04T17:16:06;30.30;94.10
13998;DHT22;7074;51.508;7.018;2022-08-04T17:18:35;30.20;94.10
13998;DHT22;7074;51.508;7.018;2022-08-04T17:21:06;30.30;94.40
13998;DHT22;7074;51.508;7.018;2022-08-04T17:23:37;30.20;94.70
13998;DHT22;7074;51.508;7.018;2022-08-04T17:26:10;30.20;95.00
13998;DHT22;7074;51.508;7.018;2022-08-04T17:28:38;30.20;95.00
13998;DHT22;7074;51.508;7.018;2022-08-04T17:31:08;30.00;95.70
13998;DHT22;7074;51.508;7.018;2022-08-04T17:33:36;29.90;96.10
13998;DHT22;7074;51.508;7.018;2022-08-04T17:36:05;29.90;96.40
13998;DHT22;7074;51.508;7.018;2022-08-04T17:38:37;29.90;96.80
13998;DHT22;7074;51.508;7.018;2022-08-04T17:41:06;29.80;97.00
13998;DHT22;7074;51.508;7.018;2022-08-04T17:43:39;29.90;97.10
13998;DHT22;7074;51.508;7.018;2022-08-04T17:46:20;29.70;97.40
13998;DHT22;7074;51.508;7.018;2022-08-04T17:48:56;29.80;97.70
13998;DHT22;7074;51.508;7.018;2022-08-04T17:51:32;29.60;98.10
13998;DHT22;7074;51.508;7.018;2022-08-04T17:54:01;29.60;98.40
13998;DHT22;7074;51.508;7.018;2022-08-04T17:56:30;29.50;98.40
13998;DHT22;7074;51.508;7.018;2022-08-04T17:59:19;29.60;98.70
13998;DHT22;7074;51.508;7.018;2022-08-04T18:01:52;29.60;99.00
13998;DHT22;7074;51.508;7.018;2022-08-04T18:04:34;29.70;99.00
13998;DHT22;7074;51.508;7.018;2022-08-04T18:07:05;29.60;99.50
13998;DHT22;7074;51.508;7.018;2022-08-04T18:09:34;29.70;99.60
13998;DHT22;7074;51.508;7.018;2022-08-04T18:12:03;29.70;99.90
13998;DHT22;7074;51.508;7.018;2022-08-04T18:14:46;29.60;99.90
13998;DHT22;7074;51.508;7.018;2022-08-04T18:17:28;29.60;99.90
13998;DHT22;7074;51.508;7.018;2022-08-04T18:19:56;29.50;99.90
13998;DHT22;7074;51.508;7.018;2022-08-04T18:22:23;29.50;99.90
13998;DHT22;7074;51.508;7.018;2022-08-04T18:24:50;29.40;99.90
13998;DHT22;7074;51.508;7.018;2022-08-04T18:27:20;29.40;99.90
13998;DHT22;7074;51.508;7.018;2022-08-04T18:29:50;29.30;99.90
13998;DHT22;7074;51.508;7.018;2022-08-04T18:32:17;29.30;99.90
13998;DHT22;7074;51.508;7.018;2022-08-04T18:34:45;29.20;99.90
13998;DHT22;7074;51.508;7.018;2022-08-04T18:37:12;29.00;99.90
13998;DHT22;7074;51.508;7.018;2022-08-04T18:39:39;28.90;99.90
13998;DHT22;7074;51.508;7.018;2022-08-04T18:42:07;28.90;99.90
13998;DHT22;7074;51.508;7.018;2022-08-04T18:44:34;28.80;99.90
13998;DHT22;7074;51.508;7.018;2022-08-04T18:47:03;28.80;99.90
13998;DHT22;7074;51.508;7.018;2022-08-04T18:49:31;28.90;99.90
13998;DHT22;7074;51.508;7.018;2022-08-04T18:51:58;28.90;99.90
13998;DHT22;7074;51.508;7.018;2022-08-04T18:54:25;28.90;99.90
13998;DHT22;7074;51.508;7.018;2022-08-04T18:56:54;28.90;99.90
13998;DHT22;7074;51.508;7.018;2022-08-04T18:59:21;28.80;99.90
13998;DHT22;7074;51.508;7.018;2022-08-04T19:01:49;28.80;99.90
13998;DHT22;7074;51.508;7.018;2022-08-04T19:04:17;28.80;99.90
13998;DHT22;7074;51.508;7.018;2022-08-04T19:06:45;28.80;99.90
13998;DHT22;7074;51.508;7.018;2022-08-04T19:09:12;28.80;99.90
13998;DHT22;7074;51.508;7.018;2022-08-04T19:11:39;28.60;99.90
13998;DHT22;7074;51.508;7.018;2022-08-04T19:14:06;28.50;99.90
13998;DHT22;7074;51.508;7.018;2022-08-04T19:16:35;28.30;99.90
13998;DHT22;7074;51.508;7.018;2022-08-04T19:19:04;28.30;99.90
13998;DHT22;7074;51.508;7.018;2022-08-04T19:21:33;28.30;99.90
13998;DHT22;7074;51.508;7.018;2022-08-04T19:24:00;28.30;99.90
13998;DHT22;7074;51.508;7.018;2022-08-04T19:26:28;28.20;99.90
13998;DHT22;7074;51.508;7.018;2022-08-04T19:28:55;28.30;99.90
13998;DHT22;7074;51.508;7.018;2022-08-04T19:31:22;28.30;99.90
13998;DHT22;7074;51.508;7.018;2022-08-04T19:33:50;28.30;99.90
13998;DHT22;7074;51.508;7.018;2022-08-04T19:36:17;28.30;99.90
13998;DHT22;7074;51.508;7.018;2022-08-04T19:38:46;28.20;99.90
13998;DHT22;7074;51.508;7.018;2022-08-04T19:41:13;28.10;99.90
13998;DHT22;7074;51.508;7.018;2022-08-04T19:43:41;28.10;99.90
13998;DHT22;7074;51.508;7.018;2022-08-04T19:46:08;28.10;99.90
13998;DHT22;7074;51.508;7.018;2022-08-04T19:48:35;28.10;99.90
13998;DHT22;7074;51.508;7.018;2022-08-04T19:51:03;28.10;99.90
13998;DHT22;7074;51.508;7.018;2022-08-04T19:53:30;28.10;99.90
13998;DHT22;7074;51.508;7.018;2022-08-04T19:55:59;28.10;99.90
13998;DHT22;7074;51.508;7.018;2022-08-04T19:58:26;27.90;99.90
13998;DHT22;7074;51.508;7.018;2022-08-04T20:00:53;27.80;99.90
13998;DHT22;7074;51.508;7.018;2022-08-04T20:03:21;27.90;99.90
13998;DHT22;7074;51.508;7.018;2022-08-04T20:05:48;27.80;99.90
13998;DHT22;7074;51.508;7.018;2022-08-04T20:08:15;27.80;99.90
13998;DHT22;7074;51.508;7.018;2022-08-04T20:10:42;27.80;99.90
13998;DHT22;7074;51.508;7.018;2022-08-04T20:13:11;27.90;99.90
13998;DHT22;7074;51.508;7.018;2022-08-04T20:15:38;27.90;99.90
13998;DHT22;7074;51.508;7.018;2022-08-04T20:18:06;27.90;99.90
13998;DHT22;7074;51.508;7.018;2022-08-04T20:20:33;27.90;99.90
13998;DHT22;7074;51.508;7.018;2022-08-04T20:23:00;27.90;99.90
13998;DHT22;7074;51.508;7.018;2022-08-04T20:25:27;27.80;99.90
13998;DHT22;7074;51.508;7.018;2022-08-04T20:27:54;27.70;99.90
13998;DHT22;7074;51.508;7.018;2022-08-04T20:30:23;27.70;99.90
13998;DHT22;7074;51.508;7.018;2022-08-04T20:32:51;27.70;99.90
13998;DHT22;7074;51.508;7.018;2022-08-04T20:35:19;27.80;99.90
13998;DHT22;7074;51.508;7.018;2022-08-04T20:37:50;27.70;99.90
13998;DHT22;7074;51.508;7.018;2022-08-04T20:40:18;27.60;99.90
13998;DHT22;7074;51.508;7.018;2022-08-04T20:42:45;27.60;99.90
13998;DHT22;7074;51.508;7.018;2022-08-04T20:45:13;27.60;99.90
13998;DHT22;7074;51.508;7.018;2022-08-04T20:47:49;27.50;99.90
13998;DHT22;7074;51.508;7.018;2022-08-04T20:50:16;27.40;99.90
13998;DHT22;7074;51.508;7.018;2022-08-04T20:52:43;27.50;99.90
13998;DHT22;7074;51.508;7.018;2022-08-04T20:55:12;27.40;99.90
13998;DHT22;7074;51.508;7.018;2022-08-04T20:57:39;27.30;99.90
13998;DHT22;7074;51.508;7.018;2022-08-04T21:00:08;27.20;99.90
13998;DHT22;7074;51.508;7.018;2022-08-04T21:02:35;27.00;99.90
13998;DHT22;7074;51.508;7.018;2022-08-04T21:05:05;26.90;99.90
13998;DHT22;7074;51.508;7.018;2022-08-04T21:07:32;26.70;99.90
13998;DHT22;7074;51.508;7.018;2022-08-04T21:09:59;26.50;99.90
13998;DHT22;7074;51.508;7.018;2022-08-04T21:12:26;26.30;99.90
13998;DHT22;7074;51.508;7.018;2022-08-04T21:14:54;26.10;99.90
13998;DHT22;7074;51.508;7.018;2022-08-04T21:17:22;26.10;99.90
13998;DHT22;7074;51.508;7.018;2022-08-04T21:19:50;26.00;99.90
13998;DHT22;7074;51.508;7.018;2022-08-04T21:22:18;26.00;99.90
13998;DHT22;7074;51.508;7.018;2022-08-04T21:24:46;26.00;99.90
13998;DHT22;7074;51.508;7.018;2022-08-04T21:27:13;25.90;99.90
13998;DHT22;7074;51.508;7.018;2022-08-04T21:29:40;25.90;99.90
13998;DHT22;7074;51.508;7.018;2022-08-04T21:32:07;25.70;99.90
13998;DHT22;7074;51.508;7.018;2022-08-04T21:34:35;25.60;99.90
13998;DHT22;7074;51.508;7.018;2022-08-04T21:37:02;25.50;99.90
13998;DHT22;7074;51.508;7.018;2022-08-04T21:39:31;25.50;99.90
13998;DHT22;7074;51.508;7.018;2022-08-04T21:41:58;25.50;99.90
13998;DHT22;7074;51.508;7.018;2022-08-04T21:44:25;25.40;99.90
13998;DHT22;7074;51.508;7.018;2022-08-04T21:46:52;25.20;99.90
13998;DHT22;7074;51.508;7.018;2022-08-04T21:49:20;25.10;99.90
13998;DHT22;7074;51.508;7.018;2022-08-04T21:51:47;25.10;99.90
13998;DHT22;7074;51.508;7.018;2022-08-04T21:54:14;25.20;99.90
13998;DHT22;7074;51.508;7.018;2022-08-04T21:56:43;25.20;99.90
13998;DHT22;7074;51.508;7.018;2022-08-04T21:59:12;25.10;99.90
13998;DHT22;7074;51.508;7.018;2022-08-04T22:01:40;25.20;99.90
13998;DHT22;7074;51.508;7.018;2022-08-04T22:04:07;25.20;99.90
13998;DHT22;7074;51.508;7.018;2022-08-04T22:06:34;25.10;99.90
13998;DHT22;7074;51.508;7.018;2022-08-04T22:09:02;25.20;99.90
13998;DHT22;7074;51.508;7.018;2022-08-04T22:11:33;25.30;99.90
13998;DHT22;7074;51.508;7.018;2022-08-04T22:14:05;25.30;99.90
13998;DHT22;7074;51.508;7.018;2022-08-04T22:16:33;25.00;99.90
13998;DHT22;7074;51.508;7.018;2022-08-04T22:19:02;25.10;99.90
13998;DHT22;7074;51.508;7.018;2022-08-04T22:21:30;25.10;99.90
13998;DHT22;7074;51.508;7.018;2022-08-04T22:23:58;25.00;99.90
13998;DHT22;7074;51.508;7.018;2022-08-04T22:26:27;25.10;99.90
13998;DHT22;7074;51.508;7.018;2022-08-04T22:28:55;25.00;99.90
13998;DHT22;7074;51.508;7.018;2022-08-04T22:31:25;25.00;99.90
13998;DHT22;7074;51.508;7.018;2022-08-04T22:33:52;25.00;99.90
13998;DHT22;7074;51.508;7.018;2022-08-04T22:36:20;24.80;99.90
13998;DHT22;7074;51.508;7.018;2022-08-04T22:38:47;24.60;99.90
13998;DHT22;7074;51.508;7.018;2022-08-04T22:41:17;24.70;99.90
13998;DHT22;7074;51.508;7.018;2022-08-04T22:43:46;24.60;99.90
13998;DHT22;7074;51.508;7.018;2022-08-04T22:46:20;24.50;99.90